Time;durP1;ratioP1;P1;durP2;ratioP2;P2;SDS_P1;SDS_P2;PMS_P1;PMS_P2;Temp;Humidity;BMP_temperature;BMP_pressure;BME280_temperature;BME280_humidity;BME280_pressure;Samples;Min_cycle;Max_cycle;Signal;HPM_P1;HPM_P2
2022/05/02 00:01:17;;;;;;;18.17;11.82;;;;;;;9.04;100.00;94342.13;5063926;28;20508;-92
2022/05/02 00:03:50;;;;;;;20.45;13.93;;;;;;;8.99;100.00;94336.88;5063408;28;20024;-93
2022/05/02 00:06:17;;;;;;;24.13;13.50;;;;;;;8.99;100.00;94334.25;5064698;28;20028;-93
2022/05/02 00:08:43;;;;;;;18.33;11.98;;;;;;;9.03;100.00;94336.09;5063487;28;20346;-93
2022/05/02 00:11:09;;;;;;;20.17;11.93;;;;;;;9.12;100.00;94338.22;5063070;28;20063;-93
2022/05/02 00:13:34;;;;;;;18.60;12.15;;;;;;;9.14;100.00;94331.69;5063620;28;20032;-93
2022/05/02 00:16:00;;;;;;;24.80;13.45;;;;;;;9.15;100.00;94328.00;5062798;28;20025;-93
2022/05/02 00:18:28;;;;;;;20.63;13.52;;;;;;;9.22;100.00;94327.00;5063120;28;20099;-93
2022/05/02 00:20:56;;;;;;;20.80;12.82;;;;;;;9.15;100.00;94324.63;5063561;28;20368;-93
2022/05/02 00:23:22;;;;;;;22.80;12.30;;;;;;;8.86;100.00;94325.84;5063603;28;20097;-93
2022/05/02 00:25:50;;;;;;;19.67;12.32;;;;;;;9.02;100.00;94328.50;5063080;28;20024;-93
2022/05/02 00:28:16;;;;;;;18.52;11.88;;;;;;;9.10;100.00;94324.59;5063432;28;20459;-94
2022/05/02 00:30:42;;;;;;;28.23;13.00;;;;;;;9.24;100.00;94328.28;5062816;28;20115;-93
2022/05/02 00:33:18;;;;;;;;;;;;;;;;;;;;;
2022/05/02 00:35:44;;;;;;;21.92;12.85;;;;;;;9.38;100.00;94330.41;5079472;28;20012;-93
2022/05/02 00:38:14;;;;;;;20.08;12.10;;;;;;;9.45;100.00;94329.09;5080584;28;20104;-93
2022/05/02 00:40:50;;;;;;;;;;;;;;;;;;;;;
2022/05/02 00:43:17;;;;;;;21.73;11.93;;;;;;;9.52;100.00;94322.84;5080250;28;20019;-93
2022/05/02 00:45:56;;;;;;;;;;;;;;;;;;;;;
2022/05/02 00:48:22;;;;;;;17.85;10.93;;;;;;;9.49;100.00;94318.91;5079209;28;20025;-93
2022/05/02 00:50:47;;;;;;;17.00;11.20;;;;;;;9.56;100.00;94311.59;5080077;28;20103;-93
2022/05/02 00:53:15;;;;;;;15.82;10.63;;;;;;;9.59;100.00;94312.91;5062571;28;20136;-93
2022/05/02 00:55:44;;;;;;;18.13;10.85;;;;;;;9.59;100.00;94316.31;5079354;28;20034;-93
2022/05/02 00:58:09;;;;;;;20.52;12.40;;;;;;;9.61;100.00;94311.59;5079179;28;20028;-93
2022/05/02 01:00:38;;;;;;;17.30;12.00;;;;;;;9.58;100.00;94316.56;5078631;28;20098;-93
2022/05/02 01:03:08;;;;;;;18.33;11.80;;;;;;;9.57;100.00;94313.16;5078897;28;20099;-93
2022/05/02 01:08:37;;;;;;;17.67;11.57;;;;;;;9.38;100.00;94310.28;5078961;28;20067;-94
2022/05/02 01:11:03;;;;;;;16.60;11.77;;;;;;;9.22;100.00;94311.31;5063298;28;20020;-94
2022/05/02 01:13:33;;;;;;;22.33;12.98;;;;;;;9.19;100.00;94310.00;5062123;28;20032;-93
2022/05/02 01:15:59;;;;;;;20.02;12.73;;;;;;;9.00;100.00;94304.47;5062133;28;20031;-94
2022/05/02 01:18:26;;;;;;;21.27;13.95;;;;;;;8.91;100.00;94297.16;5062107;28;20342;-93
2022/05/02 01:20:52;;;;;;;23.15;13.70;;;;;;;8.87;100.00;94295.31;5062520;28;20450;-92
2022/05/02 01:23:27;;;;;;;;;;;;;;;;;;;;;
2022/05/02 01:25:56;;;;;;;20.58;13.75;;;;;;;8.77;100.00;94296.84;5078785;28;20029;-93
2022/05/02 01:28:21;;;;;;;22.17;14.43;;;;;;;8.79;100.00;94304.44;5062147;28;20048;-92
2022/05/02 01:30:51;;;;;;;25.13;13.55;;;;;;;8.83;100.00;94295.03;5061706;28;20020;-94
2022/05/02 01:33:27;;;;;;;;;;;;;;;;;;;;;
2022/05/02 01:35:53;;;;;;;21.05;13.93;;;;;;;8.74;100.00;94293.94;5038315;28;20017;-93
2022/05/02 01:38:20;;;;;;;23.35;14.25;;;;;;;8.70;100.00;94293.69;5038623;28;20120;-93
2022/05/02 01:40:49;;;;;;;21.23;11.82;;;;;;;8.66;100.00;94289.22;5053780;28;20064;-93
2022/05/02 01:43:16;;;;;;;20.30;13.75;;;;;;;8.58;100.00;94286.06;5058960;28;20021;-94
2022/05/02 01:45:49;;;;;;;27.52;13.93;;;;;;;8.62;100.00;94284.53;5058114;28;20393;-93
2022/05/02 01:48:25;;;;;;;;;;;;;;;;;;;;;
2022/05/02 01:51:00;;;;;;;;;;;;;;;;;;;;;
2022/05/02 01:53:31;;;;;;;22.85;13.65;;;;;;;8.30;100.00;94280.19;5058005;28;20341;-93
2022/05/02 01:56:00;;;;;;;21.65;13.80;;;;;;;8.30;100.00;94272.34;5057768;28;20029;-93
2022/05/02 01:58:28;;;;;;;21.75;14.00;;;;;;;8.27;100.00;94279.94;5041598;28;20487;-93
2022/05/02 02:00:58;;;;;;;23.38;14.20;;;;;;;7.77;100.00;94280.97;5041705;28;20056;-93
2022/05/02 02:03:26;;;;;;;21.80;13.40;;;;;;;7.83;100.00;94273.97;5057730;28;20033;-93
2022/05/02 02:05:54;;;;;;;22.08;13.25;;;;;;;7.44;100.00;94274.22;5058171;28;20055;-93
2022/05/02 02:08:33;;;;;;;25.77;15.85;;;;;;;7.00;100.00;94283.75;5057517;28;20025;-93
2022/05/02 02:11:16;;;;;;;26.02;16.52;;;;;;;6.96;100.00;94284.47;5041495;28;20025;-93
2022/05/02 02:14:01;;;;;;;28.92;16.80;;;;;;;7.03;100.00;94275.44;5057585;28;20047;-93
2022/05/02 02:16:36;;;;;;;;;;;;;;;;;;;;;
2022/05/02 02:19:05;;;;;;;24.98;16.65;;;;;;;7.22;100.00;94275.06;5056991;28;20341;-93
2022/05/02 02:22:31;;;;;;;;;;;;;;;;;;;;;
2022/05/02 02:24:59;;;;;;;24.50;15.27;;;;;;;7.28;100.00;94270.69;5058235;28;20035;-93
2022/05/02 02:27:26;;;;;;;23.52;15.02;;;;;;;7.37;100.00;94279.63;5041411;28;20052;-92
2022/05/02 02:29:52;;;;;;;31.75;16.08;;;;;;;7.24;100.00;94272.22;5041252;28;20119;-93
2022/05/02 02:32:20;;;;;;;23.52;16.00;;;;;;;7.01;100.00;94267.06;5057132;28;20052;-93
2022/05/02 02:34:48;;;;;;;27.33;16.65;;;;;;;7.20;100.00;94270.13;5057162;28;20028;-93
2022/05/02 02:37:16;;;;;;;28.77;16.50;;;;;;;7.33;100.00;94263.69;5040832;28;20063;-93
2022/05/02 02:39:43;;;;;;;33.90;17.33;;;;;;;7.33;100.00;94273.34;5057154;28;20030;-92
2022/05/02 02:42:16;;;;;;;27.58;16.23;;;;;;;7.52;100.00;94265.13;5040589;28;20020;-93
2022/05/02 02:44:44;;;;;;;22.98;14.90;;;;;;;7.62;100.00;94265.22;5041604;28;20032;-92
2022/05/02 02:47:12;;;;;;;25.98;15.00;;;;;;;7.74;100.00;94265.03;5040859;28;20308;-93
2022/05/02 02:49:44;;;;;;;23.00;14.38;;;;;;;7.77;100.00;94261.91;5057049;28;20025;-93
2022/05/02 02:52:12;;;;;;;20.27;13.13;;;;;;;7.81;100.00;94255.13;5056820;28;20025;-92
2022/05/02 02:54:40;;;;;;;21.08;13.40;;;;;;;7.74;100.00;94255.34;5056731;28;20569;-92
2022/05/02 02:57:05;;;;;;;23.35;13.63;;;;;;;7.78;100.00;94246.00;5056704;28;20024;-93
2022/05/02 02:59:31;;;;;;;22.63;14.20;;;;;;;7.68;100.00;94247.78;5056608;28;20031;-93
2022/05/02 03:01:59;;;;;;;24.40;14.68;;;;;;;7.35;100.00;94250.41;5040151;28;20048;-93
2022/05/02 03:07:19;;;;;;;;;;;;;;;;;;;;;
2022/05/02 03:09:54;;;;;;;22.05;14.57;;;;;;;6.83;100.00;94260.38;5036595;28;20016;-93
2022/05/02 03:12:20;;;;;;;23.10;15.45;;;;;;;6.80;100.00;94260.88;5021636;28;20032;-93
2022/05/02 03:14:53;;;;;;;24.40;14.52;;;;;;;7.00;100.00;94260.28;5020038;28;20090;-92
2022/05/02 03:17:21;;;;;;;27.67;16.00;;;;;;;6.78;100.00;94258.53;5020945;28;20025;-92
2022/05/02 03:19:56;;;;;;;26.25;16.85;;;;;;;6.80;100.00;94255.69;5036471;28;20025;-93
2022/05/02 03:25:43;;;;;;;29.67;17.35;;;;;;;6.84;100.00;94256.75;5057426;28;20043;-92
2022/05/02 03:28:19;;;;;;;;;;;;;;;;;;;;;
2022/05/02 03:30:55;;;;;;;;;;;;;;;;;;;;;
2022/05/02 03:33:30;;;;;;;28.05;17.60;;;;;;;7.28;100.00;94252.44;5056328;28;20028;-92
2022/05/02 03:35:56;;;;;;;31.45;18.33;;;;;;;7.40;100.00;94255.66;5055949;28;20411;-92
2022/05/02 03:38:29;;;;;;;29.98;17.33;;;;;;;7.53;100.00;94243.25;5056141;28;20025;-92
2022/05/02 03:40:54;;;;;;;31.73;17.37;;;;;;;7.61;100.00;94243.56;5040431;28;20029;-92
2022/05/02 03:43:22;;;;;;;25.20;16.00;;;;;;;7.51;100.00;94240.88;5039895;28;20029;-92
2022/05/02 03:45:57;;;;;;;30.00;16.85;;;;;;;7.44;100.00;94235.88;5055990;28;20088;-92
2022/05/02 03:48:33;;;;;;;;;;;;;;;;;;;;;
2022/05/02 03:51:03;;;;;;;29.45;17.83;;;;;;;7.22;100.00;94241.97;5056169;28;20020;-92
2022/05/02 03:53:29;;;;;;;27.15;16.67;;;;;;;7.19;100.00;94245.09;5039631;28;20075;-93
2022/05/02 03:56:05;;;;;;;;;;;;;;;;;;;;;
2022/05/02 03:58:31;;;;;;;27.48;16.30;;;;;;;7.42;100.00;94248.38;5055860;28;20035;-94
2022/05/02 04:01:05;;;;;;;29.70;16.20;;;;;;;7.01;100.00;94238.44;5039416;28;20124;-93
2022/05/02 04:03:41;;;;;;;;;;;;;;;;;;;;;
2022/05/02 04:06:19;;;;;;;;;;;;;;;;;;;;;
2022/05/02 04:08:46;;;;;;;30.17;18.25;;;;;;;6.79;100.00;94239.25;5055825;28;20499;-94
2022/05/02 04:11:12;;;;;;;34.25;20.17;;;;;;;7.01;100.00;94238.44;5039386;28;20021;-92
2022/05/02 04:13:43;;;;;;;27.45;18.23;;;;;;;7.12;100.00;94231.47;5039207;28;20107;-92
2022/05/02 04:16:11;;;;;;;30.42;18.90;;;;;;;7.26;100.00;94238.88;5039903;28;20139;-93
2022/05/02 04:18:45;;;;;;;27.88;16.83;;;;;;;7.29;100.00;94233.16;5039556;28;20025;-93
2022/05/02 04:21:11;;;;;;;32.75;17.90;;;;;;;7.36;100.00;94239.72;5040343;28;20457;-93
2022/05/02 04:23:47;;;;;;;;;;;;;;;;;;;;;
2022/05/02 04:26:13;;;;;;;29.15;17.48;;;;;;;7.25;100.00;94240.72;5055626;28;20021;-93
2022/05/02 04:28:38;;;;;;;27.30;16.73;;;;;;;7.27;100.00;94235.22;5039597;28;20128;-93
2022/05/02 04:31:06;;;;;;;28.80;17.13;;;;;;;7.19;100.00;94237.28;5055686;28;20024;-92
2022/05/02 04:33:36;;;;;;;29.17;16.27;;;;;;;7.18;100.00;94234.91;5039171;28;20438;-92
2022/05/02 04:36:02;;;;;;;25.05;16.58;;;;;;;7.14;100.00;94241.66;5039278;28;20029;-93
2022/05/02 04:38:38;;;;;;;;;;;;;;;;;;;;;
2022/05/02 04:41:14;;;;;;;;;;;;;;;;;;;;;
2022/05/02 04:43:51;;;;;;;;;;;;;;;;;;;;;
2022/05/02 04:46:26;;;;;;;30.23;17.98;;;;;;;7.36;100.00;94239.72;5058982;28;20039;-92
2022/05/02 04:49:02;;;;;;;;;;;;;;;;;;;;;
2022/05/02 04:51:27;;;;;;;27.95;17.00;;;;;;;7.40;100.00;94247.84;5059249;28;20012;-93
2022/05/02 04:53:54;;;;;;;34.10;18.33;;;;;;;7.38;100.00;94242.09;5058868;28;20115;-93
2022/05/02 04:56:19;;;;;;;25.40;16.52;;;;;;;7.54;100.00;94240.41;5042397;28;20028;-92
2022/05/02 04:58:47;;;;;;;28.98;16.02;;;;;;;7.58;100.00;94241.47;5042919;28;20334;-92
2022/05/02 05:01:22;;;;;;;28.00;15.93;;;;;;;7.48;100.00;94249.19;5058940;28;20033;-93
2022/05/02 05:03:57;;;;;;;;;;;;;;;;;;;;;
2022/05/02 05:06:33;;;;;;;;;;;;;;;;;;;;;
2022/05/02 05:09:01;;;;;;;33.67;17.45;;;;;;;7.54;100.00;94257.84;5058873;28;20027;-92
2022/05/02 05:17:58;;;;;;;26.73;16.50;;;;;;;7.82;100.00;94256.75;5058747;28;20032;-93
2022/05/02 05:20:39;;;;;;;;;;;;;;;;;;;;;
2022/05/02 05:27:09;;;;;;;27.00;16.77;;;;;;;8.25;100.00;94264.50;5039546;28;20086;-93
2022/05/02 05:29:46;;;;;;;26.20;16.30;;;;;;;8.14;100.00;94261.06;5023193;28;20040;-92
2022/05/02 05:33:05;;;;;;;;;;;;;;;;;;;;;
2022/05/02 05:35:30;;;;;;;27.05;15.60;;;;;;;8.58;100.00;94267.78;5039642;28;20021;-93
2022/05/02 05:38:09;;;;;;;25.23;15.43;;;;;;;8.73;100.00;94272.28;5039368;28;20409;-93
2022/05/02 05:40:52;;;;;;;20.65;13.70;;;;;;;8.97;100.00;94273.63;5038222;28;20056;-92
2022/05/02 05:43:23;;;;;;;19.13;13.38;;;;;;;8.99;100.00;94271.53;5023299;28;20056;-92
2022/05/02 05:46:07;;;;;;;;;;;;;;;;;;;;;
2022/05/02 05:48:50;;;;;;;21.45;13.73;;;;;;;9.29;100.00;94270.78;5038187;28;20043;-93
2022/05/02 05:51:51;;;;;;;22.10;12.60;;;;;;;9.55;100.00;94275.25;5038317;28;20028;-93
2022/05/02 05:55:01;;;;;;;20.50;12.68;;;;;;;9.93;100.00;94270.50;5038622;28;20037;-93
2022/05/02 05:57:49;;;;;;;22.00;11.88;;;;;;;10.16;100.00;94270.94;4978233;28;20030;-92
2022/05/02 06:00:18;;;;;;;19.30;11.50;;;;;;;10.48;100.00;94276.91;5021459;28;20037;-92
2022/05/02 06:03:13;;;;;;;16.05;11.07;;;;;;;10.52;100.00;94278.72;5022204;28;20041;-92
2022/05/02 06:05:50;;;;;;;;;;;;;;;;;;;;;
2022/05/02 06:08:23;;;;;;;17.08;11.27;;;;;;;10.67;100.00;94271.84;5037752;28;20025;-92
2022/05/02 06:10:56;;;;;;;18.02;11.40;;;;;;;10.78;100.00;94283.03;5021824;28;20025;-92
2022/05/02 06:13:32;;;;;;;;;;;;;;;;;;;;;
2022/05/02 06:18:53;;;;;;;;;;;;;;;;;;;;;
2022/05/02 06:21:23;;;;;;;18.40;10.50;;;;;;;11.12;100.00;94280.50;5037447;28;20031;-92
2022/05/02 06:24:01;;;;;;;;;;;;;;;;;;;;;
2022/05/02 06:26:30;;;;;;;16.30;10.90;;;;;;;11.22;100.00;94279.63;5037400;28;20026;-92
2022/05/02 06:29:08;;;;;;;;;;;;;;;;;;;;;
2022/05/02 06:31:47;;;;;;;;;;;;;;;;;;;;;
2022/05/02 06:34:25;;;;;;;;;;;;;;;;;;;;;
2022/05/02 06:36:59;;;;;;;16.80;11.48;;;;;;;10.93;100.00;94271.72;5077296;28;20025;-92
2022/05/02 06:39:37;;;;;;;19.08;10.35;;;;;;;11.24;100.00;94280.16;5060714;28;20082;-93
2022/05/02 06:42:43;;;;;;;16.45;9.95;;;;;;;11.42;100.00;94283.19;5077127;28;20032;-94
2022/05/02 06:45:50;;;;;;;;;;;;;;;;;;;;;
2022/05/02 06:48:40;;;;;;;20.75;9.75;;;;;;;11.47;100.00;94275.28;5077115;28;20032;-94
2022/05/02 06:51:19;;;;;;;;;;;;;;;;;;;;;
2022/05/02 06:54:03;;;;;;;;;;;;;;;;;;;;;
2022/05/02 06:56:44;;;;;;;13.05;9.00;;;;;;;11.89;100.00;94286.19;5077782;28;20043;-94
2022/05/02 06:59:35;;;;;;;16.00;9.32;;;;;;;11.84;100.00;94284.41;5076686;28;20119;-93
2022/05/02 07:02:36;;;;;;;;;;;;;;;;;;;;;
2022/05/02 07:05:34;;;;;;;13.40;8.88;;;;;;;12.32;100.00;94290.00;5076353;28;20034;-94
2022/05/02 07:08:13;;;;;;;15.38;9.15;;;;;;;12.38;100.00;94292.28;5061039;28;20075;-94
2022/05/02 07:10:42;;;;;;;14.95;8.48;;;;;;;13.25;100.00;94286.22;5060421;28;20077;-93
2022/05/02 07:16:34;;;;;;;15.57;9.00;;;;;;;14.06;100.00;94303.63;5077525;28;20412;-94
2022/05/02 07:19:31;;;;;;;13.73;8.20;;;;;;;14.30;100.00;94305.34;5076410;28;20418;-94
2022/05/02 07:22:38;;;;;;;;;;;;;;;;;;;;;
2022/05/02 07:25:14;;;;;;;10.20;6.95;;;;;;;15.11;100.00;94298.75;5077337;28;20036;-93
2022/05/02 07:27:53;;;;;;;11.52;7.63;;;;;;;15.15;100.00;94298.94;5060045;28;20127;-93
2022/05/02 07:30:28;;;;;;;13.15;7.65;;;;;;;14.25;100.00;94300.94;5076407;28;20028;-94
2022/05/02 07:33:04;;;;;;;;;;;;;;;;;;;;;
2022/05/02 07:35:32;;;;;;;10.38;7.88;;;;;;;14.91;100.00;94292.03;5076241;28;20033;-94
2022/05/02 07:37:58;;;;;;;14.82;8.60;;;;;;;14.56;100.00;94295.06;5059897;28;20028;-94
2022/05/02 07:40:42;;;;;;;;;;;;;;;;;;;;;
2022/05/02 07:43:11;;;;;;;11.75;6.32;;;;;;;15.76;100.00;94300.44;5076470;28;20028;-94
2022/05/02 07:45:41;;;;;;;12.65;6.75;;;;;;;15.43;100.00;94300.69;5059867;28;20124;-94
2022/05/02 07:48:10;;;;;;;10.73;6.45;;;;;;;15.01;100.00;94290.28;5059927;28;20421;-94
2022/05/02 07:51:05;;;;;;;;;;;;;;;;;;;;;
2022/05/02 07:53:43;;;;;;;9.20;6.00;;;;;;;14.87;100.00;94292.94;5076396;28;20029;-94
2022/05/02 07:56:15;;;;;;;13.18;6.15;;;;;;;15.07;100.00;94297.78;5060551;28;20032;-94
2022/05/02 07:58:46;;;;;;;9.57;6.28;;;;;;;14.44;100.00;94294.00;5059801;28;20028;-93
2022/05/02 08:01:30;;;;;;;10.25;6.13;;;;;;;15.03;100.00;94286.25;5059998;28;20044;-93
2022/05/02 08:03:57;;;;;;;6.22;4.22;;;;;;;14.84;100.00;94283.75;5059338;28;20341;-93
2022/05/02 08:06:31;;;;;;;8.35;4.72;;;;;;;15.17;100.00;94291.50;5059612;28;20024;-93
2022/05/02 08:09:00;;;;;;;7.55;4.20;;;;;;;15.03;100.00;94291.53;5076300;28;20032;-94
2022/05/02 08:11:55;;;;;;;6.75;4.30;;;;;;;15.06;100.00;94295.44;5076289;28;20064;-94
2022/05/02 08:14:25;;;;;;;9.50;4.20;;;;;;;15.18;100.00;94298.34;5059291;28;20341;-93
2022/05/02 08:17:25;;;;;;;7.70;4.13;;;;;;;15.00;100.00;94294.75;5062216;28;20067;-93
2022/05/02 08:20:08;;;;;;;10.70;4.70;;;;;;;15.54;100.00;94297.50;5063919;28;20025;-93
2022/05/02 08:28:58;;;;;;;6.57;4.25;;;;;;;15.78;100.00;94299.06;5079791;28;20036;-94
2022/05/02 08:31:51;;;;;;;7.03;4.90;;;;;;;16.36;100.00;94301.88;5079551;28;20150;-93
2022/05/02 08:34:59;;;;;;;13.65;5.40;;;;;;;15.93;100.00;94299.81;5079654;28;20024;-93
2022/05/02 08:37:43;;;;;;;9.50;5.53;;;;;;;15.31;100.00;94303.88;5034400;28;20461;-93
2022/05/02 08:40:28;;;;;;;;;;;;;;;;;;;;;
2022/05/02 08:43:16;;;;;;;;;;;;;;;;;;;;;
2022/05/02 08:46:16;;;;;;;;;;;;;;;;;;;;;
2022/05/02 08:49:32;;;;;;;10.20;6.00;;;;;;;14.51;100.00;94310.22;5060361;28;20032;-91
2022/05/02 08:52:45;;;;;;;;;;;;;;;;;;;;;
2022/05/02 08:55:54;;;;;;;13.50;6.45;;;;;;;14.89;100.00;94310.03;5060026;28;20016;-92
2022/05/02 08:58:51;;;;;;;8.43;5.22;;;;;;;15.16;100.00;94312.91;5059213;28;20176;-92
2022/05/02 09:02:20;;;;;;;10.35;6.35;;;;;;;14.89;100.00;94306.59;5058961;28;20033;-92
2022/05/02 09:04:53;;;;;;;9.95;5.78;;;;;;;14.78;100.00;94314.72;5039456;28;20032;-92
2022/05/02 09:07:59;;;;;;;7.97;5.90;;;;;;;14.25;100.00;94316.75;5038866;28;20029;-91
2022/05/02 09:11:07;;;;;;;11.73;5.97;;;;;;;14.14;100.00;94320.63;5039816;28;20116;-92
2022/05/02 09:13:57;;;;;;;7.07;5.22;;;;;;;14.55;100.00;94317.25;5039235;28;20438;-93
2022/05/02 09:16:31;;;;;;;9.45;6.32;;;;;;;14.16;100.00;94325.63;5022290;28;20022;-93
2022/05/02 09:19:18;;;;;;;9.52;5.60;;;;;;;14.32;100.00;94323.47;5039207;28;20036;-93
2022/05/02 09:21:59;;;;;;;13.00;4.63;;;;;;;14.36;100.00;94327.09;5022746;28;20427;-94
2022/05/02 09:25:17;;;;;;;10.70;5.93;;;;;;;14.06;100.00;94322.06;5023067;28;20057;-95
2022/05/02 09:27:56;;;;;;;11.88;6.18;;;;;;;14.25;100.00;94324.66;5023686;28;20026;-93
2022/05/02 09:30:21;;;;;;;9.43;6.25;;;;;;;13.97;100.00;94321.16;5022691;28;20083;-92
2022/05/02 09:33:04;;;;;;;9.82;6.07;;;;;;;13.84;100.00;94323.50;5038617;28;20029;-93
2022/05/02 09:35:31;;;;;;;10.45;6.50;;;;;;;14.16;100.00;94325.63;5021893;28;20025;-92
2022/05/02 09:38:02;;;;;;;8.68;5.75;;;;;;;15.08;100.00;94325.72;5021967;28;20347;-92
2022/05/02 09:40:35;;;;;;;8.00;5.53;;;;;;;15.97;100.00;94324.53;5022356;28;20033;-93
2022/05/02 09:49:43;;;;;;;10.43;6.15;;;;;;;15.40;100.00;94326.63;5039176;28;20036;-92
2022/05/02 09:52:13;;;;;;;8.55;5.18;;;;;;;16.48;100.00;94329.59;5037936;28;20082;-91
2022/05/02 09:57:53;;;;;;;6.22;3.80;;;;;;;16.24;87.54;94320.97;5038951;28;20028;-93
2022/05/02 10:03:28;;;;;;;6.60;3.28;;;;;;;16.11;83.00;94321.81;5038089;28;20361;-93
2022/05/02 10:06:04;;;;;;;5.13;3.15;;;;;;;14.84;87.35;94324.09;5037587;28;20033;-94
2022/05/02 10:08:49;;;;;;;5.65;3.17;;;;;;;15.81;83.93;94326.75;5037745;28;20025;-92
2022/05/02 10:11:39;;;;;;;7.88;3.33;;;;;;;15.16;84.50;94326.88;5021300;28;20330;-94
2022/05/02 10:14:27;;;;;;;4.32;3.38;;;;;;;15.91;86.61;94334.44;5037834;28;20123;-94
2022/05/02 10:17:22;;;;;;;;;;;;;;;;;;;;;
2022/05/02 10:20:32;;;;;;;6.30;3.15;;;;;;;15.86;85.84;94328.50;5037500;28;20338;-95
2022/05/02 10:23:15;;;;;;;8.02;3.67;;;;;;;16.84;85.34;94317.28;5037629;28;20060;-94
2022/05/02 10:25:43;;;;;;;5.05;3.55;;;;;;;16.25;82.36;94317.22;5038678;28;20441;-93
2022/05/02 10:28:46;;;;;;;5.03;3.08;;;;;;;17.21;75.03;94323.09;5037395;28;20061;-93
2022/05/02 10:31:43;;;;;;;4.70;3.58;;;;;;;16.23;80.23;94315.97;5037468;28;20120;-93
2022/05/02 10:34:09;;;;;;;4.53;3.05;;;;;;;17.62;72.63;94321.09;5037417;28;20072;-93
2022/05/02 10:36:42;;;;;;;4.90;2.92;;;;;;;16.70;67.45;94317.38;5037499;28;20025;-93
2022/05/02 10:39:47;;;;;;;6.65;3.70;;;;;;;16.11;84.83;94327.88;5020635;28;20033;-94
2022/05/02 10:42:26;;;;;;;;;;;;;;;;;;;;;
2022/05/02 10:45:10;;;;;;;4.45;2.60;;;;;;;16.03;71.59;94320.69;5037173;28;20024;-94
2022/05/02 10:47:57;;;;;;;4.57;3.25;;;;;;;15.50;81.54;94322.19;5021142;28;20037;-93
2022/05/02 10:50:40;;;;;;;5.60;3.33;;;;;;;16.42;77.60;94320.22;5021561;28;20486;-94
2022/05/02 10:53:07;;;;;;;4.90;3.03;;;;;;;16.86;92.80;94318.53;5021543;28;20033;-93
2022/05/02 10:55:36;;;;;;;5.65;3.28;;;;;;;16.87;79.03;94306.84;5037198;28;20033;-93
2022/05/02 10:58:04;;;;;;;5.32;3.33;;;;;;;16.74;78.52;94313.06;5021158;28;20033;-91
2022/05/02 11:00:37;;;;;;;3.50;3.15;;;;;;;16.53;81.90;94317.03;5020237;28;20123;-94
2022/05/02 11:03:47;;;;;;;;;;;;;;;;;;;;;
2022/05/02 11:07:04;;;;;;;;;;;;;;;;;;;;;
2022/05/02 11:09:41;;;;;;;5.70;3.15;;;;;;;16.82;74.11;94307.78;5004164;28;20041;-94
2022/05/02 11:12:13;;;;;;;7.57;3.92;;;;;;;16.42;76.23;94302.53;5020854;28;20029;-94
2022/05/02 11:15:03;;;;;;;5.65;3.55;;;;;;;15.88;86.66;94303.31;5020588;28;20075;-95
2022/05/02 11:18:03;;;;;;;;;;;;;;;;;;;;;
2022/05/02 11:21:14;;;;;;;6.45;3.50;;;;;;;15.58;84.76;94308.25;5036529;28;20034;-94
2022/05/02 11:24:16;;;;;;;;;;;;;;;;;;;;;
2022/05/02 11:26:45;;;;;;;3.60;3.00;;;;;;;16.09;97.84;94300.22;5022305;28;20049;-93
2022/05/02 11:29:28;;;;;;;6.22;3.13;;;;;;;15.73;93.11;94296.56;5020356;28;20056;-94
2022/05/02 11:31:58;;;;;;;11.48;3.40;;;;;;;15.60;83.24;94292.13;5021342;28;20029;-95
2022/05/02 11:34:52;;;;;;;8.65;3.60;;;;;;;15.80;97.73;94288.97;5020127;28;20068;-93
2022/05/02 11:37:45;;;;;;;6.03;3.28;;;;;;;15.48;97.20;94290.00;5036325;28;20033;-93
2022/05/02 11:40:19;;;;;;;6.43;3.75;;;;;;;16.04;100.00;94281.81;5020391;28;20040;-94
2022/05/02 11:42:59;;;;;;;6.60;3.38;;;;;;;16.71;80.76;94280.03;5020994;28;20041;-94
2022/05/02 11:45:45;;;;;;;6.07;3.33;;;;;;;16.66;69.91;94282.84;5021537;28;20029;-94
2022/05/02 11:48:32;;;;;;;7.07;3.10;;;;;;;15.09;79.53;94276.38;5020507;28;20131;-93
2022/05/02 11:51:04;;;;;;;4.95;3.10;;;;;;;15.32;100.00;94274.53;5021019;28;20022;-93
2022/05/02 11:53:36;;;;;;;7.70;3.47;;;;;;;15.64;97.56;94277.22;5024186;28;20511;-94
2022/05/02 11:56:03;;;;;;;6.22;3.70;;;;;;;15.58;100.00;94276.56;5024310;28;20060;-93
2022/05/02 11:58:48;;;;;;;4.95;3.20;;;;;;;14.88;100.00;94279.44;5024149;28;20029;-93
2022/05/02 12:01:33;;;;;;;;;;;;;;;;;;;;;
2022/05/02 12:04:02;;;;;;;4.68;3.90;;;;;;;16.36;100.00;94264.84;5040162;28;20025;-93
2022/05/02 12:06:59;;;;;;;5.50;3.05;;;;;;;16.17;68.54;94273.03;5024187;28;20119;-95
2022/05/02 12:09:25;;;;;;;6.10;2.80;;;;;;;16.58;70.42;94263.22;5019001;28;20041;-93
2022/05/02 12:11:52;;;;;;;3.63;2.58;;;;;;;17.28;63.09;94264.41;5023701;28;20091;-94
2022/05/02 12:14:19;;;;;;;10.57;3.35;;;;;;;17.19;81.55;94262.53;5023555;28;20037;-94
2022/05/02 12:17:10;;;;;;;6.45;3.00;;;;;;;17.55;69.36;94263.31;5023550;28;20029;-94
2022/05/02 12:19:37;;;;;;;5.90;2.97;;;;;;;17.18;73.77;94257.56;5024321;28;20324;-93
2022/05/02 12:22:08;;;;;;;7.72;3.15;;;;;;;16.17;68.10;94257.16;5023409;28;20033;-94
2022/05/02 12:24:42;;;;;;;8.93;3.28;;;;;;;16.70;63.18;94256.53;5039813;28;20034;-93
2022/05/02 12:27:13;;;;;;;11.13;3.20;;;;;;;15.79;73.72;94241.75;5024271;28;20025;-94
2022/05/02 12:29:42;;;;;;;6.10;3.40;;;;;;;15.94;77.71;94251.16;5023837;28;20025;-94
2022/05/02 12:35:45;;;;;;;5.40;3.17;;;;;;;15.22;74.52;94258.94;5040845;28;20079;-93
2022/05/02 12:38:24;;;;;;;;;;;;;;;;;;;;;
2022/05/02 12:41:32;;;;;;;;;;;;;;;;;;;;;
2022/05/02 12:44:18;;;;;;;8.10;3.42;;;;;;;17.14;71.83;94257.38;5050213;28;20086;-94
2022/05/02 12:47:05;;;;;;;11.13;3.35;;;;;;;17.16;64.62;94251.78;5025524;28;20109;-95
2022/05/02 12:50:02;;;;;;;;;;;;;;;;;;;;;
2022/05/02 12:53:05;;;;;;;;;;;;;;;;;;;;;
2022/05/02 12:55:40;;;;;;;6.40;3.15;;;;;;;17.43;63.35;94244.63;5040202;28;20025;-94
2022/05/02 13:01:16;;;;;;;;;;;;;;;;;;;;;
2022/05/02 13:03:44;;;;;;;6.75;3.92;;;;;;;17.15;92.34;94232.50;5039198;28;20028;-93
2022/05/02 13:06:10;;;;;;;4.82;3.72;;;;;;;17.00;67.20;94233.72;5022969;28;20061;-94
2022/05/02 13:08:41;;;;;;;6.20;3.50;;;;;;;16.93;73.60;94231.53;5022799;28;20026;-93
2022/05/02 13:11:10;;;;;;;5.72;3.67;;;;;;;18.13;68.59;94241.81;5023084;28;20338;-93
2022/05/02 13:13:51;;;;;;;8.93;3.67;;;;;;;18.61;64.78;94221.31;5022775;28;20032;-93
2022/05/02 13:16:16;;;;;;;4.82;3.70;;;;;;;17.80;63.92;94219.28;5023336;28;20052;-94
2022/05/02 13:19:10;;;;;;;;;;;;;;;;;;;;;
2022/05/02 13:21:49;;;;;;;;;;;;;;;;;;;;;
2022/05/02 13:24:17;;;;;;;7.32;3.42;;;;;;;17.01;62.90;94222.06;5039861;28;20020;-96
2022/05/02 13:26:53;;;;;;;6.22;3.78;;;;;;;16.19;65.27;94211.94;5022817;28;20025;-95
2022/05/02 13:30:02;;;;;;;5.68;3.58;;;;;;;16.16;72.06;94212.56;5038690;28;20021;-95
2022/05/02 13:32:46;;;;;;;;;;;;;;;;;;;;;
2022/05/02 13:35:20;;;;;;;6.18;4.40;;;;;;;17.07;74.10;94207.59;5038644;28;20017;-94
2022/05/02 13:38:19;;;;;;;;;;;;;;;;;;;;;
2022/05/02 13:41:23;;;;;;;4.50;3.78;;;;;;;18.69;57.26;94205.63;5038359;28;20022;-94
2022/05/02 13:44:16;;;;;;;;;;;;;;;;;;;;;
2022/05/02 13:47:00;;;;;;;6.50;3.38;;;;;;;19.14;53.32;94209.56;5038400;28;20013;-94
2022/05/02 13:49:31;;;;;;;5.00;3.40;;;;;;;19.78;50.88;94208.31;5022444;28;20037;-95
2022/05/02 13:55:40;;;;;;;4.93;3.55;;;;;;;19.14;51.23;94204.25;5040975;28;20358;-94
2022/05/02 13:58:37;;;;;;;3.70;2.80;;;;;;;20.41;50.38;94200.41;5038797;28;20025;-94
2022/05/02 14:01:44;;;;;;;;;;;;;;;;;;;;;
2022/05/02 14:04:50;;;;;;;7.20;3.80;;;;;;;20.43;49.39;94190.97;5038116;28;20021;-95
2022/05/02 14:07:24;;;;;;;;;;;;;;;;;;;;;
2022/05/02 14:10:03;;;;;;;;;;;;;;;;;;;;;
2022/05/02 14:12:47;;;;;;;;;;;;;;;;;;;;;
2022/05/02 14:15:16;;;;;;;5.90;3.78;;;;;;;19.46;51.51;94178.81;5038116;28;20556;-96
2022/05/02 14:17:53;;;;;;;7.55;3.95;;;;;;;19.77;49.66;94198.78;5038390;28;20029;-96
2022/05/02 14:20:29;;;;;;;5.90;3.17;;;;;;;20.55;49.00;94176.13;5037447;28;20112;-95
2022/05/02 14:23:07;;;;;;;3.75;2.75;;;;;;;23.31;45.69;94180.84;5037613;28;20431;-94
2022/05/02 14:25:38;;;;;;;5.10;3.05;;;;;;;23.72;44.55;94191.13;5037449;28;20036;-94
2022/05/02 14:28:16;;;;;;;7.80;3.22;;;;;;;22.10;45.28;94194.69;5021092;28;20394;-95
2022/05/02 14:30:57;;;;;;;;;;;;;;;;;;;;;
2022/05/02 14:34:14;;;;;;;;;;;;;;;;;;;;;
2022/05/02 14:36:42;;;;;;;4.90;2.70;;;;;;;21.56;50.79;94194.09;5019399;28;20039;-95
2022/05/02 14:39:16;;;;;;;4.93;3.20;;;;;;;22.18;50.10;94193.72;5020899;28;20040;-95
2022/05/02 14:44:44;;;;;;;5.88;4.15;;;;;;;18.55;57.96;94197.94;5038075;28;20047;-94